Time;durP1;ratioP1;P1;durP2;ratioP2;P2;SDS_P1;SDS_P2;PMS_P1;PMS_P2;Temp;Humidity;BMP_temperature;BMP_pressure;BME280_temperature;BME280_humidity;BME280_pressure;Samples;Min_cycle;Max_cycle;Signal;HPM_P1;HPM_P2
2022/10/17 00:04:45;;;;;;;8.45;7.63;;;17.30;77.30;;;;;;10365812;28;20056;-58
2022/10/17 00:09:46;;;;;;;8.13;7.32;;;17.30;77.30;;;;;;10376328;28;20097;-59
2022/10/17 00:14:46;;;;;;;7.32;6.63;;;17.30;77.30;;;;;;10366606;28;20029;-59
2022/10/17 00:19:47;;;;;;;8.15;7.35;;;17.30;77.30;;;;;;10365189;28;20029;-59
2022/10/17 00:24:48;;;;;;;8.27;7.47;;;17.30;77.30;;;;;;10364625;28;20173;-59
2022/10/17 00:29:50;;;;;;;8.18;7.38;;;17.30;77.30;;;;;;10364683;28;20045;-59
2022/10/17 00:34:50;;;;;;;7.78;7.07;;;17.30;77.20;;;;;;10365227;28;20038;-59
2022/10/17 00:39:52;;;;;;;7.90;7.10;;;17.30;77.30;;;;;;10364239;28;20558;-60
2022/10/17 00:45:11;;;;;;;7.72;6.97;;;17.30;77.30;;;;;;10369365;28;20057;-59
2022/10/17 00:50:13;;;;;;;8.00;7.20;;;17.30;77.30;;;;;;10370320;28;20096;-60
2022/10/17 00:55:28;;;;;;;8.40;7.10;;;17.30;77.30;;;;;;10364444;28;20057;-60
2022/10/17 01:00:29;;;;;;;7.88;7.18;;;17.30;77.20;;;;;;10364212;28;20549;-59
2022/10/17 01:05:30;;;;;;;7.13;6.40;;;17.30;77.10;;;;;;10377977;28;20025;-59
2022/10/17 01:10:51;;;;;;;8.57;6.63;;;17.30;77.10;;;;;;10373414;28;20357;-59
2022/10/17 01:16:19;;;;;;;7.15;6.45;;;17.30;77.10;;;;;;10363374;28;20018;-60
2022/10/17 01:21:55;;;;;;;6.90;6.28;;;17.30;77.10;;;;;;10363133;28;20025;-60
2022/10/17 01:27:17;;;;;;;7.28;6.57;;;17.30;77.10;;;;;;10365300;28;20513;-59
2022/10/17 01:32:31;;;;;;;6.93;6.13;;;17.30;77.10;;;;;;10362751;28;20030;-59
2022/10/17 01:37:47;;;;;;;6.95;5.60;;;17.30;77.10;;;;;;10362707;28;20508;-58
2022/10/17 01:43:13;;;;;;;6.95;6.35;;;17.30;77.10;;;;;;10362308;28;20107;-60
2022/10/17 01:48:21;;;;;;;6.93;6.22;;;17.30;77.00;;;;;;10362399;28;20100;-59
2022/10/17 01:53:32;;;;;;;7.28;6.25;;;17.30;77.10;;;;;;10362474;28;20018;-59
2022/10/17 01:58:42;;;;;;;8.32;5.65;;;17.20;77.00;;;;;;10362016;28;20038;-59
2022/10/17 02:03:47;;;;;;;7.07;6.38;;;17.30;77.10;;;;;;10361586;28;20030;-59
2022/10/17 02:08:50;;;;;;;5.85;5.28;;;17.20;77.00;;;;;;10371265;28;20029;-60
2022/10/17 02:14:14;;;;;;;6.95;5.50;;;17.30;77.10;;;;;;10361899;28;20489;-59
2022/10/17 02:19:47;;;;;;;6.57;5.97;;;17.20;77.00;;;;;;10363439;28;20022;-60
2022/10/17 02:25:13;;;;;;;5.55;5.03;;;17.20;77.00;;;;;;10367801;28;20354;-59
2022/10/17 02:30:38;;;;;;;9.70;6.10;;;17.20;77.00;;;;;;10369494;28;20096;-59
2022/10/17 02:35:45;;;;;;;5.60;5.10;;;17.30;77.00;;;;;;10370491;28;20101;-60
2022/10/17 02:40:50;;;;;;;5.25;4.75;;;17.20;77.00;;;;;;10368828;28;20049;-60
2022/10/17 02:45:52;;;;;;;6.15;5.15;;;17.20;77.00;;;;;;10368842;28;20022;-59
2022/10/17 02:51:11;;;;;;;7.22;5.22;;;17.20;77.60;;;;;;10368503;28;20029;-59
2022/10/17 02:56:17;;;;;;;5.80;5.30;;;17.20;77.00;;;;;;10364272;28;20029;-59
2022/10/17 03:01:19;;;;;;;6.53;5.65;;;17.20;77.10;;;;;;10375251;28;20108;-60
2022/10/17 03:06:20;;;;;;;5.53;5.03;;;17.20;77.00;;;;;;10368193;28;20022;-59
2022/10/17 03:11:20;;;;;;;5.78;4.72;;;17.20;77.00;;;;;;10375716;28;20112;-59
2022/10/17 03:16:21;;;;;;;5.28;4.78;;;17.20;76.90;;;;;;10368002;28;20114;-61
2022/10/17 03:21:22;;;;;;;5.20;4.70;;;17.20;76.90;;;;;;10367560;28;20033;-60
2022/10/17 03:26:22;;;;;;;5.25;4.45;;;17.20;76.90;;;;;;10367450;28;20116;-60
2022/10/17 03:31:23;;;;;;;5.45;4.35;;;17.30;76.90;;;;;;10367192;28;20022;-59
2022/10/17 03:36:24;;;;;;;5.20;4.57;;;17.20;76.80;;;;;;10367857;28;20470;-60
2022/10/17 03:41:24;;;;;;;5.93;4.07;;;17.20;76.80;;;;;;10366827;28;20077;-59
2022/10/17 03:46:25;;;;;;;5.32;4.82;;;17.20;76.80;;;;;;10382991;28;20034;-59
2022/10/17 03:51:26;;;;;;;4.63;3.88;;;17.20;76.80;;;;;;10381142;28;20041;-60
2022/10/17 03:56:27;;;;;;;5.03;4.30;;;17.20;76.70;;;;;;10365162;28;20029;-59
2022/10/17 04:01:27;;;;;;;4.82;4.05;;;17.20;76.70;;;;;;10365921;28;20029;-59
2022/10/17 04:06:28;;;;;;;4.82;4.32;;;17.20;76.80;;;;;;10365696;28;20034;-59
2022/10/17 04:11:29;;;;;;;4.75;4.32;;;17.20;76.70;;;;;;10376768;28;20156;-61
2022/10/17 04:16:29;;;;;;;4.90;4.40;;;17.20;77.30;;;;;;10366827;28;20036;-60
2022/10/17 04:21:30;;;;;;;5.13;4.00;;;17.20;76.70;;;;;;10366589;28;20105;-59
2022/10/17 04:26:31;;;;;;;3.80;3.40;;;17.20;76.70;;;;;;10362089;28;20624;-60
2022/10/17 04:31:31;;;;;;;4.32;3.90;;;17.20;76.80;;;;;;10363847;28;20034;-60
2022/10/17 04:36:32;;;;;;;5.13;4.30;;;17.20;76.70;;;;;;10365277;28;20454;-60
2022/10/17 04:41:33;;;;;;;4.28;3.85;;;17.20;76.70;;;;;;10364948;28;20671;-59
2022/10/17 04:46:34;;;;;;;5.13;4.22;;;17.20;76.60;;;;;;10364007;28;20509;-59
2022/10/17 04:51:34;;;;;;;5.75;3.97;;;17.20;76.70;;;;;;10364632;28;20022;-60
2022/10/17 04:56:35;;;;;;;4.75;4.13;;;17.20;77.00;;;;;;10363859;28;20529;-60
2022/10/17 05:01:36;;;;;;;6.80;4.32;;;17.20;77.50;;;;;;10364034;28;20064;-59
2022/10/17 05:06:37;;;;;;;7.88;4.65;;;17.30;77.60;;;;;;10369291;28;20131;-61
2022/10/17 05:11:37;;;;;;;10.77;4.55;;;17.40;78.30;;;;;;10364291;28;20018;-59
2022/10/17 05:16:38;;;;;;;7.53;4.68;;;17.40;78.50;;;;;;10386753;28;20032;-58
2022/10/17 05:21:38;;;;;;;5.25;4.32;;;17.50;78.40;;;;;;10362745;28;20056;-59
2022/10/17 05:26:39;;;;;;;7.63;4.35;;;17.60;78.40;;;;;;10360386;28;20577;-58
2022/10/17 05:31:40;;;;;;;12.07;5.20;;;17.60;78.20;;;;;;10361546;28;20060;-57
2022/10/17 05:36:41;;;;;;;7.30;4.53;;;17.50;78.30;;;;;;10359411;28;20109;-61
2022/10/17 05:41:41;;;;;;;10.30;5.15;;;17.60;78.00;;;;;;10373876;28;20129;-59
2022/10/17 05:46:42;;;;;;;14.10;4.78;;;17.50;78.40;;;;;;10363323;28;20440;-60
2022/10/17 05:51:43;;;;;;;15.85;5.55;;;17.60;78.50;;;;;;10358937;28;20097;-59
2022/10/17 05:56:44;;;;;;;31.83;6.80;;;17.60;78.70;;;;;;10364502;28;20468;-60
2022/10/17 06:01:44;;;;;;;16.67;5.95;;;17.60;79.00;;;;;;10369330;28;20089;-61
2022/10/17 06:06:45;;;;;;;21.83;5.85;;;17.50;78.50;;;;;;10352206;28;20567;-61
2022/10/17 06:11:46;;;;;;;23.48;6.47;;;17.50;78.60;;;;;;10369891;28;20032;-60
2022/10/17 06:16:46;;;;;;;12.85;5.38;;;17.50;78.80;;;;;;10365742;28;20037;-60
2022/10/17 06:21:47;;;;;;;15.80;5.57;;;17.40;78.80;;;;;;10366345;28;20061;-60
2022/10/17 06:26:48;;;;;;;17.23;6.40;;;17.40;78.90;;;;;;10365228;28;20045;-60
2022/10/17 06:31:49;;;;;;;17.88;5.13;;;17.40;78.90;;;;;;10364315;28;20645;-60
2022/10/17 06:36:50;;;;;;;14.73;5.32;;;17.30;78.90;;;;;;10366614;28;20080;-60
2022/10/17 06:41:50;;;;;;;8.57;4.80;;;17.30;79.40;;;;;;10366828;28;20140;-60
2022/10/17 06:46:51;;;;;;;8.73;4.82;;;17.30;78.90;;;;;;10382368;28;20668;-61
2022/10/17 06:51:52;;;;;;;8.52;4.68;;;17.30;78.70;;;;;;10370597;28;20545;-60
2022/10/17 06:56:54;;;;;;;14.18;5.93;;;17.30;78.50;;;;;;10369361;28;20064;-60
2022/10/17 07:01:55;;;;;;;9.65;4.47;;;17.30;78.50;;;;;;10367086;28;20153;-60
2022/10/17 07:06:56;;;;;;;13.13;5.78;;;17.30;78.50;;;;;;10366224;28;20048;-59
2022/10/17 07:11:58;;;;;;;8.82;4.13;;;17.30;78.70;;;;;;10376470;28;20091;-60
2022/10/17 07:16:59;;;;;;;9.15;4.35;;;17.30;78.60;;;;;;10367542;28;20026;-60
2022/10/17 07:21:59;;;;;;;7.68;4.80;;;17.20;78.40;;;;;;10366178;28;20216;-58
2022/10/17 07:27:00;;;;;;;8.10;4.70;;;17.30;78.40;;;;;;10366104;28;20034;-60
2022/10/17 07:32:02;;;;;;;9.93;4.70;;;17.20;78.30;;;;;;10365814;28;20014;-59
2022/10/17 07:37:05;;;;;;;11.00;5.90;;;17.30;78.30;;;;;;10365636;28;20022;-60
2022/10/17 07:42:06;;;;;;;6.93;4.70;;;17.20;78.20;;;;;;10366480;28;20460;-60
2022/10/17 07:47:07;;;;;;;5.85;4.50;;;17.30;78.30;;;;;;10364681;28;20076;-60
2022/10/17 07:52:12;;;;;;;6.10;4.07;;;17.20;78.20;;;;;;10364964;28;20055;-59
2022/10/17 07:57:13;;;;;;;6.60;4.40;;;17.20;78.20;;;;;;10365770;28;20029;-60
2022/10/17 08:02:23;;;;;;;11.13;4.10;;;17.20;78.20;;;;;;10363760;28;20389;-60
2022/10/17 08:07:24;;;;;;;6.03;3.78;;;17.20;78.20;;;;;;10365818;28;20695;-61
2022/10/17 08:12:25;;;;;;;6.85;4.38;;;17.20;78.10;;;;;;10370684;28;20129;-59
2022/10/17 08:17:25;;;;;;;5.60;3.65;;;17.20;78.10;;;;;;10366924;28;20093;-58
2022/10/17 08:22:26;;;;;;;7.68;4.20;;;17.20;78.30;;;;;;10365621;28;20030;-59
2022/10/17 08:27:27;;;;;;;6.55;4.80;;;17.20;78.30;;;;;;10365269;28;20106;-59
2022/10/17 08:32:29;;;;;;;8.52;4.03;;;17.20;78.20;;;;;;10365272;28;20026;-59
2022/10/17 08:37:30;;;;;;;7.03;4.47;;;17.20;78.30;;;;;;10365025;28;20030;-59
2022/10/17 08:43:20;;;;;;;8.75;4.15;;;17.20;78.30;;;;;;10364814;28;20768;-59
2022/10/17 08:48:24;;;;;;;6.87;4.87;;;17.20;78.20;;;;;;10355905;28;20029;-60
2022/10/17 08:53:35;;;;;;;8.88;4.45;;;17.20;78.30;;;;;;10362608;28;20457;-60
2022/10/17 08:58:36;;;;;;;8.18;4.80;;;17.20;78.20;;;;;;10364849;28;20026;-59
2022/10/17 09:04:07;;;;;;;8.32;4.68;;;17.20;78.40;;;;;;10362877;28;20042;-61
2022/10/17 09:09:40;;;;;;;4.63;3.47;;;17.20;78.50;;;;;;10367318;28;20014;-61
2022/10/17 09:15:07;;;;;;;5.53;4.00;;;17.20;78.30;;;;;;10360223;28;20026;-61
2022/10/17 09:20:26;;;;;;;8.68;4.80;;;17.20;78.20;;;;;;10362804;28;20018;-61
2022/10/17 09:25:27;;;;;;;6.13;4.20;;;17.20;78.20;;;;;;10362795;28;20038;-62
2022/10/17 09:30:41;;;;;;;13.15;5.30;;;17.20;78.20;;;;;;10363443;28;20396;-62
2022/10/17 09:35:42;;;;;;;8.05;4.13;;;17.20;78.20;;;;;;10376690;28;20053;-61
2022/10/17 09:40:54;;;;;;;6.53;4.43;;;17.20;78.70;;;;;;10347315;28;20054;-61
2022/10/17 09:46:14;;;;;;;7.63;4.10;;;17.20;78.50;;;;;;10371522;28;20034;-62
2022/10/17 09:51:16;;;;;;;5.68;4.22;;;17.20;78.40;;;;;;10364704;28;20077;-62
2022/10/17 09:56:18;;;;;;;8.65;4.60;;;17.20;78.40;;;;;;10359492;28;20045;-62
2022/10/17 10:01:30;;;;;;;9.73;4.13;;;17.20;78.30;;;;;;10362840;28;20014;-62
2022/10/17 10:06:31;;;;;;;6.05;3.20;;;17.20;78.30;;;;;;10362527;28;20071;-62
2022/10/17 10:11:50;;;;;;;4.85;3.88;;;17.20;78.40;;;;;;10361757;28;20475;-62
2022/10/17 10:16:52;;;;;;;6.23;4.20;;;17.20;78.50;;;;;;10375916;28;20414;-61
2022/10/17 10:22:03;;;;;;;5.13;4.00;;;17.20;78.40;;;;;;10374261;28;20121;-62
2022/10/17 10:27:04;;;;;;;5.82;4.25;;;17.20;78.60;;;;;;10362481;28;20029;-62
2022/10/17 10:32:23;;;;;;;3.78;3.17;;;17.20;78.40;;;;;;10367802;28;20021;-62
2022/10/17 10:37:32;;;;;;;6.07;3.65;;;17.20;78.40;;;;;;10350089;28;20057;-62
2022/10/17 10:42:40;;;;;;;4.50;3.67;;;17.20;78.40;;;;;;10375076;28;20044;-62
2022/10/17 10:47:57;;;;;;;6.80;4.28;;;17.20;78.40;;;;;;10370281;28;20718;-62
2022/10/17 10:53:35;;;;;;;5.65;4.38;;;17.20;78.50;;;;;;10369279;28;20100;-61
2022/10/17 10:58:46;;;;;;;5.93;3.88;;;17.20;79.70;;;;;;10367199;28;20026;-61
2022/10/17 11:04:07;;;;;;;6.47;3.78;;;17.30;80.00;;;;;;10366650;28;20464;-62
2022/10/17 11:10:06;;;;;;;6.90;3.92;;;17.20;79.20;;;;;;10392493;28;20124;-61
2022/10/17 11:15:43;;;;;;;5.53;4.05;;;17.20;79.30;;;;;;10368583;28;20048;-63
2022/10/17 11:21:06;;;;;;;6.95;3.97;;;17.20;80.10;;;;;;10367722;28;20044;-63
2022/10/17 11:26:25;;;;;;;8.30;3.67;;;17.20;80.20;;;;;;10365324;28;20041;-62
2022/10/17 11:31:32;;;;;;;7.47;4.47;;;17.30;79.90;;;;;;10364968;28;20365;-64
2022/10/17 11:36:41;;;;;;;9.98;4.72;;;17.30;79.80;;;;;;10366086;28;20029;-64
2022/10/17 11:41:58;;;;;;;10.05;4.40;;;17.30;79.60;;;;;;10367353;28;20041;-62
2022/10/17 11:47:33;;;;;;;12.15;4.68;;;17.20;79.20;;;;;;10367080;28;20037;-66
2022/10/17 11:52:45;;;;;;;14.00;5.10;;;17.30;79.50;;;;;;10380795;28;20028;-65
2022/10/17 11:58:19;;;;;;;7.10;4.00;;;17.20;79.40;;;;;;10363109;28;20458;-66
2022/10/17 12:04:00;;;;;;;7.15;3.85;;;17.20;79.40;;;;;;10365421;28;20026;-65
2022/10/17 12:09:19;;;;;;;5.93;3.88;;;17.20;79.40;;;;;;10375561;28;20022;-65
2022/10/17 12:14:44;;;;;;;7.63;4.03;;;17.20;79.40;;;;;;10363109;28;20057;-66
2022/10/17 12:19:45;;;;;;;11.02;4.47;;;17.20;79.30;;;;;;10362745;28;20281;-66
2022/10/17 12:24:58;;;;;;;12.25;4.63;;;17.30;79.90;;;;;;10363802;28;20110;-64
2022/10/17 12:30:12;;;;;;;9.18;4.15;;;17.40;79.80;;;;;;10365283;28;20080;-62
2022/10/17 12:35:20;;;;;;;10.38;5.18;;;17.50;79.70;;;;;;10366821;28;20347;-62
2022/10/17 12:40:57;;;;;;;10.37;4.30;;;17.50;80.10;;;;;;10364240;28;20570;-63
2022/10/17 12:46:03;;;;;;;8.75;4.15;;;17.50;80.10;;;;;;10364774;28;20077;-62
2022/10/17 12:51:12;;;;;;;7.78;4.32;;;17.40;79.90;;;;;;10366337;28;20571;-62
2022/10/17 12:56:36;;;;;;;12.90;4.63;;;17.30;79.90;;;;;;10366408;28;20018;-62
2022/10/17 13:01:38;;;;;;;7.28;4.05;;;17.30;79.90;;;;;;10365499;28;20272;-62
2022/10/17 13:06:49;;;;;;;7.70;5.03;;;17.30;79.80;;;;;;10373904;28;20381;-62
2022/10/17 13:11:51;;;;;;;10.43;4.00;;;17.30;79.80;;;;;;10365332;28;20029;-62
2022/10/17 13:16:57;;;;;;;6.55;4.43;;;17.30;79.80;;;;;;10363730;28;20029;-62
2022/10/17 13:22:01;;;;;;;7.47;4.55;;;17.30;79.80;;;;;;10363742;28;20033;-63
2022/10/17 13:27:02;;;;;;;10.45;4.43;;;17.30;79.90;;;;;;10360299;28;20485;-63
2022/10/17 13:32:04;;;;;;;7.88;4.60;;;17.30;79.80;;;;;;10361679;28;20025;-62
2022/10/17 13:37:09;;;;;;;7.45;3.65;;;17.30;79.70;;;;;;10381230;28;20018;-62
2022/10/17 13:42:27;;;;;;;5.88;4.15;;;17.30;79.60;;;;;;10362666;28;20084;-63
2022/10/17 13:47:36;;;;;;;6.30;3.53;;;17.30;79.70;;;;;;10362565;28;20041;-62
2022/10/17 13:52:37;;;;;;;7.47;4.10;;;17.30;79.60;;;;;;10349021;28;20049;-62
2022/10/17 13:57:37;;;;;;;5.97;3.50;;;17.30;79.60;;;;;;10365942;28;20036;-62
2022/10/17 14:02:40;;;;;;;5.35;3.88;;;17.30;79.60;;;;;;10365417;28;20066;-62
2022/10/17 14:07:54;;;;;;;7.18;4.30;;;17.30;79.60;;;;;;10365057;28;20060;-62
2022/10/17 14:12:56;;;;;;;5.53;3.90;;;17.30;79.60;;;;;;10367601;28;20073;-63
2022/10/17 14:18:03;;;;;;;5.18;3.33;;;17.30;79.70;;;;;;10363043;28;20034;-62
2022/10/17 14:23:04;;;;;;;7.90;4.18;;;17.30;79.80;;;;;;10369838;28;20045;-62
2022/10/17 14:28:14;;;;;;;5.00;4.07;;;17.30;79.70;;;;;;10370538;28;20120;-63
2022/10/17 14:33:29;;;;;;;4.90;3.47;;;17.30;79.70;;;;;;10369060;28;20049;-62
2022/10/17 14:38:30;;;;;;;5.68;3.42;;;17.30;79.70;;;;;;10360436;28;20037;-61
2022/10/17 14:43:32;;;;;;;6.00;4.03;;;17.30;79.70;;;;;;10368478;28;20041;-62
2022/10/17 14:48:33;;;;;;;4.70;3.97;;;17.30;79.80;;;;;;10374816;28;20573;-63
2022/10/17 14:53:33;;;;;;;5.03;3.42;;;17.30;79.60;;;;;;10366921;28;20104;-62
2022/10/17 14:58:34;;;;;;;4.30;3.40;;;17.30;79.50;;;;;;10369291;28;20022;-62
2022/10/17 15:03:35;;;;;;;4.40;3.22;;;17.30;79.60;;;;;;10369928;28;20021;-62
2022/10/17 15:08:35;;;;;;;4.80;4.13;;;17.30;79.60;;;;;;10378556;28;20092;-62
2022/10/17 15:13:37;;;;;;;4.90;3.75;;;17.30;79.50;;;;;;10369395;28;20720;-63
2022/10/17 15:18:37;;;;;;;5.57;3.40;;;17.30;79.50;;;;;;10366119;28;20040;-62
2022/10/17 15:23:38;;;;;;;5.82;3.97;;;17.30;79.50;;;;;;10366390;28;20108;-62
2022/10/17 15:28:39;;;;;;;6.10;4.45;;;17.30;79.40;;;;;;10368688;28;20014;-63
2022/10/17 15:33:40;;;;;;;4.68;3.67;;;17.30;79.60;;;;;;10367473;28;20377;-62
2022/10/17 15:38:41;;;;;;;4.47;3.50;;;17.30;79.00;;;;;;10363819;28;20041;-63
2022/10/17 15:43:42;;;;;;;5.28;4.30;;;17.30;79.40;;;;;;10379243;28;20581;-63
2022/10/17 15:48:43;;;;;;;5.18;3.88;;;17.30;79.50;;;;;;10365212;28;20105;-63
2022/10/17 15:53:43;;;;;;;8.40;4.28;;;17.30;79.40;;;;;;10365048;28;20046;-63
2022/10/17 15:58:44;;;;;;;7.22;4.55;;;17.30;79.40;;;;;;10364358;28;20100;-62
2022/10/17 16:03:47;;;;;;;6.22;3.83;;;17.30;80.00;;;;;;10364029;28;20033;-63
2022/10/17 16:08:49;;;;;;;10.73;5.13;;;17.50;79.60;;;;;;10375650;28;20025;-61
2022/10/17 16:13:52;;;;;;;9.75;4.22;;;17.60;80.00;;;;;;10364039;28;20057;-64
2022/10/17 16:18:53;;;;;;;7.05;4.70;;;17.70;79.80;;;;;;10363611;28;20109;-62
2022/10/17 16:23:54;;;;;;;11.32;4.55;;;17.70;79.90;;;;;;10363466;28;20040;-64
2022/10/17 16:28:56;;;;;;;9.68;4.97;;;17.70;80.60;;;;;;10379676;28;20025;-64
2022/10/17 16:34:00;;;;;;;11.27;5.22;;;17.80;79.90;;;;;;10362670;28;20446;-63
2022/10/17 16:39:01;;;;;;;8.50;5.13;;;17.80;80.10;;;;;;10362497;28;20452;-65
2022/10/17 16:44:05;;;;;;;15.50;11.50;;;17.70;80.20;;;;;;10361280;28;20116;-63
2022/10/17 16:49:06;;;;;;;14.30;10.73;;;17.80;80.40;;;;;;10362557;28;20516;-64
2022/10/17 16:54:08;;;;;;;16.35;11.20;;;17.80;80.40;;;;;;10363303;28;20619;-64
2022/10/17 16:59:11;;;;;;;19.10;12.82;;;17.70;80.50;;;;;;10362485;28;20026;-66
2022/10/17 17:04:11;;;;;;;15.90;13.20;;;17.70;80.80;;;;;;10361063;28;20834;-62
2022/10/17 17:09:12;;;;;;;15.38;12.95;;;17.80;81.00;;;;;;10373239;28;20121;-63
2022/10/17 17:14:13;;;;;;;16.33;13.43;;;17.70;80.60;;;;;;10376009;28;20022;-63
2022/10/17 17:19:15;;;;;;;18.13;14.43;;;17.60;80.80;;;;;;10370235;28;20120;-63
2022/10/17 17:24:19;;;;;;;16.25;13.32;;;17.60;80.90;;;;;;10353251;28;20049;-63
2022/10/17 17:29:22;;;;;;;21.00;13.50;;;17.50;80.80;;;;;;10363161;28;20010;-63
2022/10/17 17:34:23;;;;;;;16.17;13.65;;;17.50;80.80;;;;;;10363437;28;20053;-63
2022/10/17 17:39:23;;;;;;;16.15;14.50;;;17.50;80.90;;;;;;10379139;28;20397;-63
2022/10/17 17:44:24;;;;;;;19.65;12.77;;;17.50;80.90;;;;;;10362014;28;20073;-63
2022/10/17 17:49:25;;;;;;;15.80;14.27;;;17.50;80.80;;;;;;10362406;28;20105;-63
2022/10/17 17:54:25;;;;;;;18.60;13.60;;;17.50;80.50;;;;;;10361680;28;20354;-63
2022/10/17 17:59:26;;;;;;;16.52;14.82;;;17.50;80.50;;;;;;10359128;28;20022;-63
2022/10/17 18:04:27;;;;;;;16.38;14.77;;;17.40;80.50;;;;;;10354657;28;20057;-63
2022/10/17 18:09:27;;;;;;;14.50;13.10;;;17.50;80.60;;;;;;10373308;28;20104;-63
2022/10/17 18:14:28;;;;;;;13.95;12.55;;;17.50;80.50;;;;;;10363635;28;20038;-63
2022/10/17 18:19:29;;;;;;;16.75;15.23;;;17.40;80.40;;;;;;10362129;28;20105;-65
2022/10/17 18:24:29;;;;;;;15.63;14.10;;;17.50;80.40;;;;;;10357797;28;20116;-63
2022/10/17 18:29:31;;;;;;;16.80;13.60;;;17.40;80.30;;;;;;10360002;28;20026;-63
2022/10/17 18:34:32;;;;;;;15.55;14.10;;;17.40;80.20;;;;;;10361743;28;20022;-63
2022/10/17 18:39:33;;;;;;;14.30;12.95;;;17.40;80.20;;;;;;10359574;28;20443;-63
2022/10/17 18:44:33;;;;;;;16.15;14.63;;;17.40;80.20;;;;;;10357829;28;20469;-63
2022/10/17 18:49:35;;;;;;;14.38;12.98;;;17.50;80.30;;;;;;10360440;28;20549;-63
2022/10/17 18:54:36;;;;;;;14.48;12.27;;;17.40;80.30;;;;;;10360172;28;20030;-63
2022/10/17 18:59:37;;;;;;;15.38;13.20;;;17.40;80.20;;;;;;10374443;28;20018;-63
2022/10/17 19:04:38;;;;;;;12.95;11.65;;;17.40;80.30;;;;;;10363087;28;20034;-63
2022/10/17 19:09:38;;;;;;;13.82;12.55;;;17.40;80.10;;;;;;10364074;28;20022;-61
2022/10/17 19:14:39;;;;;;;13.73;12.45;;;17.40;80.10;;;;;;10366645;28;20026;-66
2022/10/17 19:19:40;;;;;;;13.98;12.57;;;17.40;80.10;;;;;;10367943;28;20105;-63
2022/10/17 19:24:40;;;;;;;12.82;11.73;;;17.40;80.10;;;;;;10367628;28;20038;-63
2022/10/17 19:29:42;;;;;;;12.40;11.23;;;17.40;79.90;;;;;;10364668;28;20026;-63
2022/10/17 19:34:43;;;;;;;11.88;10.77;;;17.40;80.10;;;;;;10352800;28;20505;-63
2022/10/17 19:39:44;;;;;;;12.30;11.20;;;17.40;80.00;;;;;;10361028;28;20077;-62
2022/10/17 19:44:45;;;;;;;12.45;11.30;;;17.40;80.00;;;;;;10365214;28;20030;-63
2022/10/17 19:49:46;;;;;;;10.68;9.57;;;17.40;79.80;;;;;;10349334;28;20798;-63
2022/10/17 19:54:47;;;;;;;11.40;10.43;;;17.40;80.00;;;;;;10360511;28;20022;-62
2022/10/17 19:59:47;;;;;;;11.48;10.38;;;17.40;80.20;;;;;;10365308;28;20052;-63
2022/10/17 20:04:48;;;;;;;11.35;10.25;;;17.40;79.80;;;;;;10374608;28;20684;-63
2022/10/17 20:09:48;;;;;;;12.10;10.77;;;17.40;79.60;;;;;;10366998;28;20109;-62
2022/10/17 20:14:49;;;;;;;10.77;9.85;;;17.40;79.90;;;;;;10380927;28;20061;-62
2022/10/17 20:19:50;;;;;;;10.52;9.43;;;17.40;79.90;;;;;;10367014;28;20128;-64
2022/10/17 20:24:50;;;;;;;10.70;9.65;;;17.40;79.80;;;;;;10365765;28;20121;-63
2022/10/17 20:29:51;;;;;;;11.50;9.77;;;17.40;79.70;;;;;;10365040;28;20109;-62
2022/10/17 20:34:52;;;;;;;12.07;9.75;;;17.40;80.20;;;;;;10365465;28;20068;-63
2022/10/17 20:39:52;;;;;;;10.45;9.45;;;17.50;79.90;;;;;;10365854;28;20073;-63
2022/10/17 20:44:53;;;;;;;11.85;9.15;;;17.50;79.90;;;;;;10364404;28;20072;-63
2022/10/17 20:49:54;;;;;;;9.10;8.30;;;17.40;79.70;;;;;;10363072;28;20075;-63
2022/10/17 20:54:54;;;;;;;12.00;9.15;;;17.40;79.70;;;;;;10364228;28;20093;-63
2022/10/17 20:59:55;;;;;;;10.00;9.00;;;17.40;79.60;;;;;;10362820;28;20117;-63
2022/10/17 21:04:56;;;;;;;9.13;8.23;;;17.50;77.50;;;;;;10360673;28;20106;-63
2022/10/17 21:09:56;;;;;;;8.63;7.35;;;17.60;76.20;;;;;;10364230;28;20056;-63
2022/10/17 21:14:58;;;;;;;10.93;7.38;;;17.70;75.10;;;;;;10361674;28;20560;-63
2022/10/17 21:19:58;;;;;;;11.40;8.25;;;17.70;74.10;;;;;;10362768;28;20036;-63
2022/10/17 21:24:59;;;;;;;7.10;6.40;;;17.80;73.40;;;;;;10363277;28;20036;-63
2022/10/17 21:30:00;;;;;;;8.88;7.20;;;17.80;72.80;;;;;;10363345;28;20026;-63
2022/10/17 21:35:00;;;;;;;6.82;6.10;;;17.90;72.30;;;;;;10363622;28;20046;-63
2022/10/17 21:40:01;;;;;;;7.40;5.97;;;17.90;71.80;;;;;;10363557;28;20176;-63
2022/10/17 21:45:02;;;;;;;7.07;6.18;;;17.90;71.30;;;;;;10363594;28;20045;-63
2022/10/17 21:50:03;;;;;;;8.48;5.68;;;17.90;70.90;;;;;;10378577;28;20050;-63
2022/10/17 21:55:04;;;;;;;6.70;5.90;;;17.90;70.40;;;;;;10362103;28;20022;-63
2022/10/17 22:00:05;;;;;;;5.97;5.28;;;18.00;70.10;;;;;;10378386;28;20033;-63
2022/10/17 22:05:07;;;;;;;5.43;4.85;;;17.90;69.80;;;;;;10361823;28;20038;-63
2022/10/17 22:10:07;;;;;;;5.47;4.80;;;18.00;69.50;;;;;;10372953;28;20108;-64
2022/10/17 22:15:08;;;;;;;5.53;4.45;;;18.00;69.10;;;;;;10361971;28;20730;-63
2022/10/17 22:20:09;;;;;;;4.72;4.22;;;18.00;68.80;;;;;;10374886;28;20067;-63
2022/10/17 22:25:09;;;;;;;5.45;4.50;;;18.00;68.50;;;;;;10361841;28;20065;-63
2022/10/17 22:30:10;;;;;;;5.40;4.07;;;18.00;68.20;;;;;;10365615;28;20684;-63
2022/10/17 22:35:12;;;;;;;4.85;4.38;;;18.00;68.00;;;;;;10371246;28;20034;-63
2022/10/17 22:40:12;;;;;;;4.80;4.18;;;18.00;67.70;;;;;;10364827;28;20054;-63
2022/10/17 22:45:13;;;;;;;4.15;3.50;;;18.00;67.40;;;;;;10352212;28;20030;-63
2022/10/17 22:50:14;;;;;;;5.05;4.00;;;18.00;67.20;;;;;;10368794;28;20029;-63
2022/10/17 22:55:15;;;;;;;5.65;3.90;;;18.00;66.80;;;;;;10369764;28;20045;-63
2022/10/17 23:00:16;;;;;;;4.80;4.22;;;18.00;66.80;;;;;;10368731;28;20014;-64
2022/10/17 23:05:17;;;;;;;5.47;3.83;;;18.00;66.50;;;;;;10368482;28;20030;-64
2022/10/17 23:10:18;;;;;;;4.22;3.60;;;18.00;66.30;;;;;;10394904;28;20030;-63
2022/10/17 23:15:18;;;;;;;4.32;3.90;;;18.00;66.10;;;;;;10368154;28;20057;-64
2022/10/17 23:20:19;;;;;;;4.57;3.90;;;18.00;65.90;;;;;;10369584;28;20109;-63
2022/10/17 23:25:20;;;;;;;3.45;3.03;;;18.00;65.70;;;;;;10368807;28;20079;-62
2022/10/17 23:30:21;;;;;;;4.63;3.75;;;18.00;65.50;;;;;;10368143;28;20044;-63
2022/10/17 23:35:21;;;;;;;3.50;3.20;;;18.00;65.30;;;;;;10367142;28;20374;-62
2022/10/17 23:40:22;;;;;;;4.80;3.58;;;18.00;65.20;;;;;;10365847;28;20394;-63
2022/10/17 23:45:23;;;;;;;3.75;3.10;;;18.00;65.00;;;;;;10365010;28;20375;-63
2022/10/17 23:50:24;;;;;;;3.30;2.83;;;18.00;64.80;;;;;;10360868;28;20142;-63
2022/10/17 23:55:24;;;;;;;3.92;3.53;;;18.00;64.80;;;;;;10365820;28;20201;-63
